Time,TemperatureF,DewpointF,PressureIn,WindDirection,WindDirectionDegrees,WindSpeedMPH,WindSpeedGustMPH,Humidity,HourlyPrecipIn,Conditions,Clouds,dailyrainin,SoftwareType,DateUTC
2013-04-10 00:00:00,45.7,43.7,29.92,NNE,20,3.0,11.0,93,0.00,,,0.01,WUHU216DAVISVP2,2013-04-10 04:00:00,
2013-04-10 00:05:00,45.3,43.4,29.91,ENE,60,2.0,10.0,93,0.00,,,0.00,WUHU216DAVISVP2,2013-04-10 04:05:00,
2013-04-10 00:10:00,45.1,43.2,29.92,North,6,6.0,10.0,93,0.00,,,0.00,WUHU216DAVISVP2,2013-04-10 04:10:00,
2013-04-10 00:15:00,44.8,42.3,29.92,NNW,333,3.0,9.0,91,0.00,,,0.00,WUHU216DAVISVP2,2013-04-10 04:15:00,
2013-04-10 00:20:00,44.4,42.2,29.92,NE,38,2.0,8.0,92,0.00,,,0.00,WUHU216DAVISVP2,2013-04-10 04:20:00,
2013-04-10 00:25:00,44.1,41.9,29.93,North,8,5.0,8.0,92,0.00,,,0.00,WUHU216DAVISVP2,2013-04-10 04:25:00,
2013-04-10 00:30:00,43.9,41.7,29.92,NNE,23,2.0,7.0,92,0.00,,,0.00,WUHU216DAVISVP2,2013-04-10 04:30:00,
2013-04-10 00:35:00,43.7,41.8,29.92,NNW,346,2.0,7.0,93,0.00,,,0.00,WUHU216DAVISVP2,2013-04-10 04:35:00,
2013-04-10 00:40:00,43.5,41.6,29.92,NNE,32,2.0,6.0,93,0.00,,,0.00,WUHU216DAVISVP2,2013-04-10 04:40:00,
2013-04-10 00:45:00,43.4,41.5,29.92,NE,44,2.0,6.0,93,0.00,,,0.00,WUHU216DAVISVP2,2013-04-10 04:45:00,
2013-04-10 00:50:00,43.4,41.5,29.92,NNE,30,1.0,4.0,93,0.00,,,0.00,WUHU216DAVISVP2,2013-04-10 04:50:00,
2013-04-10 00:55:00,43.3,41.4,29.92,NE,44,1.0,3.0,93,0.00,,,0.00,WUHU216DAVISVP2,2013-04-10 04:55:00,
2013-04-10 01:00:00,43.2,41.3,29.92,NNE,24,2.0,5.0,93,0.00,,,0.00,WUHU216DAVISVP2,2013-04-10 05:00:00,
2013-04-10 01:05:00,43.1,41.2,29.92,NNE,32,3.0,8.0,93,0.00,,,0.00,WUHU216DAVISVP2,2013-04-10 05:05:00,
2013-04-10 01:10:00,42.9,41.0,29.92,NE,34,2.0,8.0,93,0.00,,,0.00,WUHU216DAVISVP2,2013-04-10 05:10:00,
2013-04-10 01:15:00,42.8,40.9,29.92,East,81,2.0,8.0,93,0.00,,,0.00,WUHU216DAVISVP2,2013-04-10 05:15:00,
2013-04-10 01:20:00,42.7,40.8,29.92,North,355,2.0,8.0,93,0.00,,,0.00,WUHU216DAVISVP2,2013-04-10 05:20:00,
2013-04-10 01:25:00,42.6,40.7,29.92,NE,36,1.0,6.0,93,0.00,,,0.00,WUHU216DAVISVP2,2013-04-10 05:25:00,
2013-04-10 01:30:00,42.5,40.9,29.92,NE,34,3.0,6.0,94,0.00,,,0.00,WUHU216DAVISVP2,2013-04-10 05:30:00,
2013-04-10 01:35:00,42.5,40.9,29.92,NE,34,2.0,7.0,94,0.00,,,0.00,WUHU216DAVISVP2,2013-04-10 05:35:00,
2013-04-10 01:40:00,42.5,40.6,29.92,NNW,336,4.0,7.0,93,0.00,,,0.00,WUHU216DAVISVP2,2013-04-10 05:40:00,
2013-04-10 01:45:00,42.5,40.6,29.92,NE,36,3.0,7.0,93,0.00,,,0.00,WUHU216DAVISVP2,2013-04-10 05:45:00,
2013-04-10 01:50:00,42.5,40.9,29.93,NNW,348,4.0,7.0,94,0.00,,,0.00,WUHU216DAVISVP2,2013-04-10 05:50:00,
2013-04-10 01:55:00,42.4,40.8,29.93,NNW,346,2.0,7.0,94,0.03,,,0.03,WUHU216DAVISVP2,2013-04-10 05:55:00,
2013-04-10 02:00:00,42.3,40.7,29.93,NNW,341,2.0,7.0,94,0.04,,,0.04,WUHU216DAVISVP2,2013-04-10 06:00:00,
2013-04-10 02:05:00,42.2,40.6,29.93,NNW,341,2.0,7.0,94,0.04,,,0.04,WUHU216DAVISVP2,2013-04-10 06:05:00,
2013-04-10 02:10:00,42.1,40.7,29.93,NNE,27,2.0,4.0,95,0.04,,,0.04,WUHU216DAVISVP2,2013-04-10 06:10:00,
2013-04-10 02:15:00,42.0,40.6,29.93,NNW,346,1.0,4.0,95,0.04,,,0.04,WUHU216DAVISVP2,2013-04-10 06:15:00,
2013-04-10 02:20:00,41.9,40.6,29.92,ENE,70,1.0,4.0,95,0.04,,,0.04,WUHU216DAVISVP2,2013-04-10 06:20:00,
2013-04-10 02:25:00,41.8,40.5,29.92,NE,45,2.0,4.0,95,0.04,,,0.04,WUHU216DAVISVP2,2013-04-10 06:25:00,
2013-04-10 02:30:00,41.9,40.6,29.92,ENE,65,3.0,4.0,95,0.04,,,0.04,WUHU216DAVISVP2,2013-04-10 06:30:00,
2013-04-10 02:35:00,41.9,40.6,29.91,NNE,15,1.0,4.0,95,0.04,,,0.04,WUHU216DAVISVP2,2013-04-10 06:35:00,
2013-04-10 02:40:00,41.9,40.6,29.91,North,8,3.0,4.0,95,0.04,,,0.04,WUHU216DAVISVP2,2013-04-10 06:40:00,
2013-04-10 02:45:00,41.9,40.6,29.91,NNE,15,2.0,4.0,95,0.04,,,0.04,WUHU216DAVISVP2,2013-04-10 06:45:00,
2013-04-10 02:50:00,41.9,40.6,29.90,NE,50,4.0,6.0,95,0.04,,,0.04,WUHU216DAVISVP2,2013-04-10 06:50:00,
2013-04-10 02:55:00,41.9,40.6,29.90,NE,41,1.0,6.0,95,0.01,,,0.04,WUHU216DAVISVP2,2013-04-10 06:55:00,
2013-04-10 03:00:00,41.9,40.6,29.90,NE,50,1.0,5.0,95,0.00,,,0.04,WUHU216DAVISVP2,2013-04-10 07:00:00,
2013-04-10 03:05:00,41.8,40.4,29.90,North,4,2.0,5.0,95,0.00,,,0.04,WUHU216DAVISVP2,2013-04-10 07:05:00,
2013-04-10 03:10:00,41.9,40.5,29.90,NE,53,1.0,4.0,95,0.00,,,0.04,WUHU216DAVISVP2,2013-04-10 07:10:00,
2013-04-10 03:15:00,41.8,40.5,29.90,NE,43,3.0,4.0,95,0.00,,,0.04,WUHU216DAVISVP2,2013-04-10 07:15:00,
2013-04-10 03:20:00,41.8,40.4,29.89,NNE,27,3.0,3.0,95,0.00,,,0.04,WUHU216DAVISVP2,2013-04-10 07:20:00,
2013-04-10 03:25:00,41.8,40.7,29.88,ENE,63,2.0,7.0,96,0.00,,,0.04,WUHU216DAVISVP2,2013-04-10 07:25:00,
2013-04-10 03:30:00,41.9,40.8,29.88,NE,50,1.0,7.0,96,0.00,,,0.04,WUHU216DAVISVP2,2013-04-10 07:30:00,
2013-04-10 03:35:00,41.9,40.8,29.88,NNE,27,3.0,6.0,96,0.00,,,0.04,WUHU216DAVISVP2,2013-04-10 07:35:00,
2013-04-10 03:40:00,41.9,40.8,29.88,NE,47,2.0,6.0,96,0.00,,,0.04,WUHU216DAVISVP2,2013-04-10 07:40:00,
2013-04-10 03:45:00,41.9,40.8,29.88,ESE,102,4.0,5.0,96,0.00,,,0.04,WUHU216DAVISVP2,2013-04-10 07:45:00,
2013-04-10 03:50:00,41.9,40.5,29.87,ENE,76,2.0,5.0,95,0.00,,,0.04,WUHU216DAVISVP2,2013-04-10 07:50:00,
2013-04-10 03:55:00,41.9,40.5,29.88,NE,54,2.0,5.0,95,0.00,,,0.04,WUHU216DAVISVP2,2013-04-10 07:55:00,
2013-04-10 04:00:00,42.0,40.7,29.88,NE,44,2.0,5.0,95,0.00,,,0.04,WUHU216DAVISVP2,2013-04-10 08:00:00,
2013-04-10 04:05:00,42.0,40.7,29.88,NE,39,3.0,4.0,95,0.00,,,0.04,WUHU216DAVISVP2,2013-04-10 08:05:00,
2013-04-10 04:14:00,42.0,40.9,29.88,NE,41,3.0,5.0,96,0.00,,,0.04,WUHU216DAVISVP2,2013-04-10 08:14:00,
2013-04-10 04:19:00,42.0,40.9,29.87,NE,43,3.0,7.0,96,0.00,,,0.04,WUHU216DAVISVP2,2013-04-10 08:19:00,
2013-04-10 04:24:00,42.1,41.0,29.87,ESE,106,2.0,7.0,96,0.00,,,0.04,WUHU216DAVISVP2,2013-04-10 08:24:00,
2013-04-10 04:29:00,42.2,40.8,29.87,East,91,2.0,6.0,95,0.00,,,0.04,WUHU216DAVISVP2,2013-04-10 08:29:00,
2013-04-10 04:34:00,42.2,40.8,29.87,ENE,58,4.0,6.0,95,0.00,,,0.04,WUHU216DAVISVP2,2013-04-10 08:34:00,
2013-04-10 04:39:00,42.2,40.8,29.87,ENE,71,2.0,6.0,95,0.00,,,0.04,WUHU216DAVISVP2,2013-04-10 08:39:00,
2013-04-10 04:44:00,42.2,40.8,29.87,ENE,78,2.0,6.0,95,0.00,,,0.04,WUHU216DAVISVP2,2013-04-10 08:44:00,
2013-04-10 04:49:00,42.2,40.8,29.88,East,89,4.0,6.0,95,0.00,,,0.04,WUHU216DAVISVP2,2013-04-10 08:49:00,
2013-04-10 04:54:00,42.2,40.8,29.87,NE,46,4.0,6.0,95,0.00,,,0.04,WUHU216DAVISVP2,2013-04-10 08:54:00,
2013-04-10 04:59:00,42.2,41.1,29.87,NE,36,3.0,6.0,96,0.00,,,0.04,WUHU216DAVISVP2,2013-04-10 08:59:00,
2013-04-10 05:04:00,42.1,41.0,29.87,NE,50,1.0,5.0,96,0.00,,,0.04,WUHU216DAVISVP2,2013-04-10 09:04:00,
2013-04-10 05:09:00,42.1,41.0,29.88,NE,56,3.0,5.0,96,0.00,,,0.04,WUHU216DAVISVP2,2013-04-10 09:09:00,
2013-04-10 05:14:00,42.1,41.0,29.88,NE,49,2.0,5.0,96,0.00,,,0.04,WUHU216DAVISVP2,2013-04-10 09:14:00,
2013-04-10 05:19:00,42.1,41.0,29.88,ENE,63,5.0,5.0,96,0.00,,,0.04,WUHU216DAVISVP2,2013-04-10 09:19:00,
2013-04-10 05:28:00,42.0,40.9,29.87,East,86,5.0,6.0,96,0.00,,,0.04,WUHU216DAVISVP2,2013-04-10 09:28:00,
2013-04-10 05:33:00,41.9,40.8,29.86,ENE,58,2.0,6.0,96,0.00,,,0.04,WUHU216DAVISVP2,2013-04-10 09:33:00,
2013-04-10 05:38:00,41.9,40.8,29.86,NE,38,3.0,6.0,96,0.00,,,0.04,WUHU216DAVISVP2,2013-04-10 09:38:00,
2013-04-10 05:43:00,41.8,40.7,29.86,NE,56,4.0,6.0,96,0.00,,,0.04,WUHU216DAVISVP2,2013-04-10 09:43:00,
2013-04-10 05:48:00,41.7,40.6,29.87,ENE,75,3.0,6.0,96,0.00,,,0.04,WUHU216DAVISVP2,2013-04-10 09:48:00,
2013-04-10 05:53:00,41.6,40.5,29.86,NE,45,6.0,6.0,96,0.00,,,0.04,WUHU216DAVISVP2,2013-04-10 09:53:00,
2013-04-10 05:58:00,41.5,40.4,29.86,NE,34,3.0,6.0,96,0.00,,,0.04,WUHU216DAVISVP2,2013-04-10 09:58:00,
2013-04-10 06:03:00,41.5,40.4,29.86,NE,49,2.0,6.0,96,0.02,,,0.06,WUHU216DAVISVP2,2013-04-10 10:03:00,
2013-04-10 06:08:00,41.5,40.4,29.86,ENE,58,2.0,7.0,96,0.02,,,0.06,WUHU216DAVISVP2,2013-04-10 10:08:00,
2013-04-10 06:13:00,41.4,40.3,29.86,ENE,73,4.0,7.0,96,0.02,,,0.06,WUHU216DAVISVP2,2013-04-10 10:13:00,
2013-04-10 06:18:00,41.3,40.2,29.86,NE,46,4.0,6.0,96,0.03,,,0.07,WUHU216DAVISVP2,2013-04-10 10:18:00,
2013-04-10 06:23:00,41.3,40.2,29.86,East,99,3.0,6.0,96,0.05,,,0.10,WUHU216DAVISVP2,2013-04-10 10:23:00,
2013-04-10 06:28:00,41.2,40.1,29.86,ENE,73,1.0,5.0,96,0.06,,,0.10,WUHU216DAVISVP2,2013-04-10 10:28:00,
2013-04-10 06:33:00,41.3,40.2,29.86,NE,41,4.0,5.0,96,0.06,,,0.10,WUHU216DAVISVP2,2013-04-10 10:33:00,
2013-04-10 06:38:00,41.3,40.2,29.86,ENE,77,0.0,5.0,96,0.06,,,0.10,WUHU216DAVISVP2,2013-04-10 10:38:00,
2013-04-10 06:43:00,41.3,40.2,29.86,ENE,73,1.0,5.0,96,0.06,,,0.10,WUHU216DAVISVP2,2013-04-10 10:43:00,
2013-04-10 06:48:00,41.3,40.2,29.87,North,9,2.0,4.0,96,0.06,,,0.10,WUHU216DAVISVP2,2013-04-10 10:48:00,
2013-04-10 06:53:00,41.3,40.5,29.88,NNE,15,3.0,6.0,97,0.06,,,0.10,WUHU216DAVISVP2,2013-04-10 10:53:00,
2013-04-10 06:58:00,41.3,40.2,29.89,NE,41,6.0,8.0,96,0.06,,,0.10,WUHU216DAVISVP2,2013-04-10 10:58:00,
2013-04-10 07:03:00,41.3,40.2,29.90,NNE,13,3.0,11.0,96,0.04,,,0.10,WUHU216DAVISVP2,2013-04-10 11:03:00,
2013-04-10 07:08:00,41.1,40.0,29.89,NE,49,7.0,11.0,96,0.04,,,0.10,WUHU216DAVISVP2,2013-04-10 11:08:00,
2013-04-10 07:13:00,40.9,39.8,29.89,NNE,25,7.0,10.0,96,0.04,,,0.10,WUHU216DAVISVP2,2013-04-10 11:13:00,
2013-04-10 07:18:00,40.8,39.7,29.89,NE,53,4.0,10.0,96,0.03,,,0.10,WUHU216DAVISVP2,2013-04-10 11:18:00,
2013-04-10 07:23:00,40.6,39.5,29.88,NE,45,4.0,10.0,96,0.00,,,0.10,WUHU216DAVISVP2,2013-04-10 11:23:00,
2013-04-10 07:28:00,40.4,39.3,29.89,NNW,337,2.0,11.0,96,0.00,,,0.10,WUHU216DAVISVP2,2013-04-10 11:28:00,
2013-04-10 07:33:00,40.2,38.8,29.90,NNW,328,2.0,11.0,95,0.00,,,0.10,WUHU216DAVISVP2,2013-04-10 11:33:00,
2013-04-10 07:38:00,40.0,38.7,29.89,North,5,4.0,10.0,95,0.00,,,0.10,WUHU216DAVISVP2,2013-04-10 11:38:00,
2013-04-10 07:43:00,39.8,38.4,29.89,NE,56,5.0,12.0,95,0.00,,,0.10,WUHU216DAVISVP2,2013-04-10 11:43:00,
2013-04-10 07:48:00,39.5,38.1,29.89,NE,53,5.0,12.0,95,0.00,,,0.10,WUHU216DAVISVP2,2013-04-10 11:48:00,
2013-04-10 07:53:00,39.3,37.9,29.90,NNW,345,4.0,11.0,95,0.00,,,0.10,WUHU216DAVISVP2,2013-04-10 11:53:00,
2013-04-10 07:58:00,39.2,37.8,29.90,NE,38,2.0,11.0,95,0.00,,,0.10,WUHU216DAVISVP2,2013-04-10 11:58:00,
2013-04-10 08:03:00,39.1,37.8,29.89,North,360,5.0,10.0,95,0.00,,,0.10,WUHU216DAVISVP2,2013-04-10 12:03:00,
2013-04-10 08:08:00,39.1,37.7,29.90,NE,38,4.0,9.0,95,0.00,,,0.10,WUHU216DAVISVP2,2013-04-10 12:08:00,
2013-04-10 08:13:00,39.1,37.7,29.90,NE,45,4.0,9.0,95,0.01,,,0.11,WUHU216DAVISVP2,2013-04-10 12:13:00,
2013-04-10 08:18:00,39.1,37.7,29.90,NNE,33,0.0,9.0,95,0.01,,,0.11,WUHU216DAVISVP2,2013-04-10 12:18:00,
2013-04-10 08:23:00,39.1,37.7,29.90,NE,43,4.0,8.0,95,0.01,,,0.11,WUHU216DAVISVP2,2013-04-10 12:23:00,
2013-04-10 08:28:00,39.1,37.7,29.89,North,4,2.0,9.0,95,0.01,,,0.11,WUHU216DAVISVP2,2013-04-10 12:28:00,
2013-04-10 08:33:00,39.1,37.7,29.89,NE,49,3.0,9.0,95,0.01,,,0.11,WUHU216DAVISVP2,2013-04-10 12:33:00,
2013-04-10 08:38:00,39.1,38.1,29.89,NE,47,2.0,8.0,96,0.01,,,0.11,WUHU216DAVISVP2,2013-04-10 12:38:00,
2013-04-10 08:43:00,39.2,38.1,29.88,ENE,60,4.0,8.0,96,0.01,,,0.11,WUHU216DAVISVP2,2013-04-10 12:43:00,
2013-04-10 08:48:00,39.2,38.1,29.89,NE,53,2.0,8.0,96,0.01,,,0.11,WUHU216DAVISVP2,2013-04-10 12:48:00,
2013-04-10 08:53:00,39.3,38.2,29.88,NE,53,3.0,8.0,96,0.01,,,0.11,WUHU216DAVISVP2,2013-04-10 12:53:00,
2013-04-10 08:58:00,39.4,38.3,29.89,ENE,60,4.0,7.0,96,0.01,,,0.11,WUHU216DAVISVP2,2013-04-10 12:58:00,
2013-04-10 09:03:00,39.5,38.4,29.90,NNE,31,5.0,7.0,96,0.01,,,0.11,WUHU216DAVISVP2,2013-04-10 13:03:00,
2013-04-10 09:08:00,39.5,38.4,29.90,NE,51,3.0,7.0,96,0.01,,,0.11,WUHU216DAVISVP2,2013-04-10 13:08:00,
2013-04-10 09:13:00,39.6,38.5,29.89,ENE,60,4.0,8.0,96,0.00,,,0.11,WUHU216DAVISVP2,2013-04-10 13:13:00,
2013-04-10 09:18:00,39.6,38.5,29.89,NNE,29,2.0,8.0,96,0.00,,,0.11,WUHU216DAVISVP2,2013-04-10 13:18:00,
2013-04-10 09:23:00,39.6,38.5,29.88,NE,41,6.0,7.0,96,0.00,,,0.11,WUHU216DAVISVP2,2013-04-10 13:23:00,
2013-04-10 09:28:00,39.6,38.5,29.87,East,94,3.0,8.0,96,0.00,,,0.11,WUHU216DAVISVP2,2013-04-10 13:28:00,
2013-04-10 09:33:00,39.7,38.6,29.87,East,85,4.0,8.0,96,0.00,,,0.11,WUHU216DAVISVP2,2013-04-10 13:33:00,
2013-04-10 09:38:00,39.7,38.6,29.88,NE,46,7.0,10.0,96,0.00,,,0.11,WUHU216DAVISVP2,2013-04-10 13:38:00,
2013-04-10 09:43:00,39.8,38.7,29.87,ENE,60,5.0,10.0,96,0.00,,,0.11,WUHU216DAVISVP2,2013-04-10 13:43:00,
2013-04-10 09:48:00,39.9,38.8,29.87,NNE,32,2.0,9.0,96,0.00,,,0.11,WUHU216DAVISVP2,2013-04-10 13:48:00,
2013-04-10 09:53:00,39.9,38.8,29.87,NE,56,6.0,10.0,96,0.00,,,0.11,WUHU216DAVISVP2,2013-04-10 13:53:00,
2013-04-10 09:59:00,39.9,38.8,29.87,East,90,4.0,10.0,96,0.00,,,0.11,WUHU216DAVISVP2,2013-04-10 13:59:00,
2013-04-10 10:03:00,39.9,38.8,29.87,NE,53,4.0,9.0,96,0.00,,,0.11,WUHU216DAVISVP2,2013-04-10 14:03:00,
2013-04-10 10:08:00,40.0,38.9,29.87,NE,49,2.0,9.0,96,0.00,,,0.11,WUHU216DAVISVP2,2013-04-10 14:08:00,
2013-04-10 10:13:00,39.9,38.8,29.86,East,84,4.0,8.0,96,0.00,,,0.11,WUHU216DAVISVP2,2013-04-10 14:13:00,
2013-04-10 10:18:00,40.0,38.9,29.86,SE,124,5.0,8.0,96,0.00,,,0.11,WUHU216DAVISVP2,2013-04-10 14:18:00,
2013-04-10 10:23:00,40.1,39.0,29.86,ENE,76,4.0,8.0,96,0.00,,,0.11,WUHU216DAVISVP2,2013-04-10 14:23:00,
2013-04-10 10:28:00,40.1,39.0,29.85,East,94,2.0,8.0,96,0.00,,,0.11,WUHU216DAVISVP2,2013-04-10 14:28:00,
2013-04-10 10:33:00,40.2,39.1,29.84,NE,45,3.0,7.0,96,0.00,,,0.11,WUHU216DAVISVP2,2013-04-10 14:33:00,
2013-04-10 10:38:00,40.3,39.5,29.83,ENE,74,4.0,7.0,97,0.00,,,0.11,WUHU216DAVISVP2,2013-04-10 14:38:00,
2013-04-10 10:43:00,40.5,39.7,29.83,SE,135,0.0,7.0,97,0.00,,,0.11,WUHU216DAVISVP2,2013-04-10 14:43:00,
2013-04-10 10:48:00,40.6,39.8,29.84,SSE,163,1.0,7.0,97,0.00,,,0.11,WUHU216DAVISVP2,2013-04-10 14:48:00,
2013-04-10 10:53:00,40.7,39.9,29.83,ENE,77,5.0,7.0,97,0.00,,,0.11,WUHU216DAVISVP2,2013-04-10 14:53:00,
2013-04-10 10:58:00,40.7,39.9,29.83,SW,226,0.0,8.0,97,0.00,,,0.11,WUHU216DAVISVP2,2013-04-10 14:58:00,
2013-04-10 11:03:00,40.9,40.1,29.85,SSW,192,0.0,8.0,97,0.00,,,0.11,WUHU216DAVISVP2,2013-04-10 15:03:00,
2013-04-10 11:08:00,41.0,40.2,29.85,East,85,2.0,7.0,97,0.00,,,0.11,WUHU216DAVISVP2,2013-04-10 15:08:00,
2013-04-10 11:13:00,41.1,40.3,29.85,East,95,3.0,7.0,97,0.00,,,0.11,WUHU216DAVISVP2,2013-04-10 15:13:00,
2013-04-10 11:18:00,41.3,40.2,29.85,ENE,71,3.0,7.0,96,0.00,,,0.11,WUHU216DAVISVP2,2013-04-10 15:18:00,
2013-04-10 11:23:00,41.3,40.2,29.86,East,82,3.0,7.0,96,0.00,,,0.11,WUHU216DAVISVP2,2013-04-10 15:23:00,
2013-04-10 11:28:00,41.3,40.2,29.85,ENE,77,2.0,6.0,96,0.00,,,0.11,WUHU216DAVISVP2,2013-04-10 15:28:00,
2013-04-10 11:33:00,41.2,40.1,29.85,NE,53,2.0,6.0,96,0.00,,,0.11,WUHU216DAVISVP2,2013-04-10 15:33:00,
2013-04-10 11:38:00,41.3,40.5,29.84,NE,53,2.0,6.0,97,0.00,,,0.11,WUHU216DAVISVP2,2013-04-10 15:38:00,
2013-04-10 11:43:00,41.4,40.6,29.84,ESE,116,2.0,6.0,97,0.00,,,0.11,WUHU216DAVISVP2,2013-04-10 15:43:00,
2013-04-10 11:48:00,41.4,40.6,29.84,ENE,77,2.0,7.0,97,0.00,,,0.11,WUHU216DAVISVP2,2013-04-10 15:48:00,
2013-04-10 11:53:00,41.5,40.7,29.84,ENE,58,5.0,7.0,97,0.00,,,0.11,WUHU216DAVISVP2,2013-04-10 15:53:00,
2013-04-10 11:58:00,41.5,40.7,29.85,East,101,0.0,6.0,97,0.00,,,0.11,WUHU216DAVISVP2,2013-04-10 15:58:00,
2013-04-10 12:03:00,41.6,40.8,29.88,WNW,302,3.0,6.0,97,0.00,,,0.11,WUHU216DAVISVP2,2013-04-10 16:03:00,
2013-04-10 12:08:00,41.9,41.1,29.95,NW,308,5.0,14.0,97,0.00,,,0.11,WUHU216DAVISVP2,2013-04-10 16:08:00,
2013-04-10 12:13:00,42.0,40.9,29.96,WNW,283,7.0,15.0,96,0.00,,,0.11,WUHU216DAVISVP2,2013-04-10 16:13:00,
2013-04-10 12:18:00,42.0,40.9,29.93,NW,304,5.0,15.0,96,0.02,,,0.13,WUHU216DAVISVP2,2013-04-10 16:18:00,
2013-04-10 12:23:00,41.8,40.7,29.88,East,93,2.0,15.0,96,0.05,,,0.16,WUHU216DAVISVP2,2013-04-10 16:23:00,
2013-04-10 12:28:00,41.7,40.6,29.88,East,87,2.0,15.0,96,0.09,,,0.20,WUHU216DAVISVP2,2013-04-10 16:28:00,
2013-04-10 12:34:00,41.6,40.5,29.86,ENE,58,2.0,13.0,96,0.16,,,0.27,WUHU216DAVISVP2,2013-04-10 16:34:00,
2013-04-10 12:39:00,41.6,40.8,29.87,NNE,15,4.0,7.0,97,0.23,,,0.34,WUHU216DAVISVP2,2013-04-10 16:39:00,
2013-04-10 12:44:00,41.6,40.8,29.90,NNW,339,2.0,7.0,97,0.24,,,0.35,WUHU216DAVISVP2,2013-04-10 16:44:00,
2013-04-10 12:49:00,41.6,40.8,29.88,NNE,20,2.0,7.0,97,0.24,,,0.35,WUHU216DAVISVP2,2013-04-10 16:49:00,
2013-04-10 12:54:00,41.6,40.8,29.90,NNE,29,3.0,7.0,97,0.24,,,0.35,WUHU216DAVISVP2,2013-04-10 16:54:00,
2013-04-10 12:59:00,41.6,40.8,29.90,North,4,3.0,7.0,97,0.25,,,0.36,WUHU216DAVISVP2,2013-04-10 16:59:00,
2013-04-10 13:04:00,41.6,40.5,29.88,ENE,60,2.0,7.0,96,0.26,,,0.37,WUHU216DAVISVP2,2013-04-10 17:04:00,
2013-04-10 13:09:00,41.6,40.5,29.85,NE,53,3.0,7.0,96,0.26,,,0.37,WUHU216DAVISVP2,2013-04-10 17:09:00,
2013-04-10 13:14:00,41.7,40.6,29.83,ENE,67,3.0,9.0,96,0.26,,,0.37,WUHU216DAVISVP2,2013-04-10 17:14:00,
2013-04-10 13:19:00,41.7,40.6,29.81,SE,124,3.0,9.0,96,0.24,,,0.37,WUHU216DAVISVP2,2013-04-10 17:19:00,
2013-04-10 13:24:00,41.7,40.6,29.79,ESE,108,6.0,10.0,96,0.21,,,0.37,WUHU216DAVISVP2,2013-04-10 17:24:00,
2013-04-10 13:29:00,41.7,40.6,29.78,ENE,61,4.0,10.0,96,0.17,,,0.37,WUHU216DAVISVP2,2013-04-10 17:29:00,
2013-04-10 13:34:00,42.0,40.9,29.81,ENE,58,2.0,8.0,96,0.09,,,0.37,WUHU216DAVISVP2,2013-04-10 17:34:00,
2013-04-10 13:39:00,42.4,41.6,29.83,East,96,2.0,8.0,97,0.03,,,0.37,WUHU216DAVISVP2,2013-04-10 17:39:00,
2013-04-10 13:44:00,42.7,41.9,29.82,SE,127,1.0,7.0,97,0.02,,,0.37,WUHU216DAVISVP2,2013-04-10 17:44:00,
2013-04-10 13:49:00,42.9,42.1,29.82,ESE,117,1.0,6.0,97,0.02,,,0.37,WUHU216DAVISVP2,2013-04-10 17:49:00,
2013-04-10 13:54:00,43.0,41.9,29.82,East,79,1.0,5.0,96,0.02,,,0.37,WUHU216DAVISVP2,2013-04-10 17:54:00,
2013-04-10 13:59:00,43.0,41.9,29.84,ESE,116,2.0,5.0,96,0.01,,,0.37,WUHU216DAVISVP2,2013-04-10 17:59:00,
2013-04-10 14:04:00,43.1,42.0,29.83,NE,56,2.0,4.0,96,0.00,,,0.37,WUHU216DAVISVP2,2013-04-10 18:04:00,
2013-04-10 14:09:00,43.2,42.1,29.86,NNW,334,2.0,5.0,96,0.00,,,0.37,WUHU216DAVISVP2,2013-04-10 18:09:00,
2013-04-10 14:14:00,43.3,42.2,29.85,NE,34,2.0,5.0,96,0.00,,,0.37,WUHU216DAVISVP2,2013-04-10 18:14:00,
2013-04-10 14:19:00,43.4,42.3,29.84,NE,49,3.0,4.0,96,0.00,,,0.37,WUHU216DAVISVP2,2013-04-10 18:19:00,
2013-04-10 14:24:00,43.4,42.3,29.80,NE,34,5.0,7.0,96,0.00,,,0.37,WUHU216DAVISVP2,2013-04-10 18:24:00,
2013-04-10 14:29:00,43.3,42.2,29.81,East,92,4.0,7.0,96,0.00,,,0.37,WUHU216DAVISVP2,2013-04-10 18:29:00,
2013-04-10 14:34:00,43.4,42.3,29.80,NE,45,2.0,7.0,96,0.00,,,0.37,WUHU216DAVISVP2,2013-04-10 18:34:00,
2013-04-10 14:39:00,43.4,42.3,29.83,East,81,0.0,7.0,96,0.00,,,0.37,WUHU216DAVISVP2,2013-04-10 18:39:00,
2013-04-10 14:44:00,43.5,42.2,29.83,NNE,31,3.0,6.0,95,0.00,,,0.37,WUHU216DAVISVP2,2013-04-10 18:44:00,
2013-04-10 14:49:00,43.5,42.1,29.82,NNE,20,3.0,6.0,95,0.00,,,0.37,WUHU216DAVISVP2,2013-04-10 18:49:00,
2013-04-10 14:54:00,43.5,42.4,29.82,North,355,2.0,5.0,96,0.00,,,0.37,WUHU216DAVISVP2,2013-04-10 18:54:00,
2013-04-10 14:59:00,43.6,42.2,29.82,North,9,3.0,5.0,95,0.00,,,0.37,WUHU216DAVISVP2,2013-04-10 18:59:00,
2013-04-10 15:04:00,43.7,42.6,29.82,NE,49,2.0,5.0,96,0.00,,,0.37,WUHU216DAVISVP2,2013-04-10 19:04:00,
2013-04-10 15:09:00,43.8,42.4,29.81,NE,49,2.0,9.0,95,0.00,,,0.37,WUHU216DAVISVP2,2013-04-10 19:09:00,
2013-04-10 15:14:00,43.9,42.5,29.83,North,353,5.0,9.0,95,0.00,,,0.37,WUHU216DAVISVP2,2013-04-10 19:14:00,
2013-04-10 15:19:00,44.1,42.8,29.84,North,352,2.0,8.0,95,0.00,,,0.37,WUHU216DAVISVP2,2013-04-10 19:19:00,
2013-04-10 15:24:00,43.9,42.3,29.85,NE,46,6.0,10.0,94,0.00,,,0.37,WUHU216DAVISVP2,2013-04-10 19:24:00,
2013-04-10 15:29:00,43.8,42.1,29.85,NNE,13,2.0,10.0,94,0.00,,,0.37,WUHU216DAVISVP2,2013-04-10 19:29:00,
2013-04-10 15:34:00,43.6,41.9,29.85,NE,53,2.0,10.0,94,0.00,,,0.37,WUHU216DAVISVP2,2013-04-10 19:34:00,
2013-04-10 15:39:00,43.7,42.3,29.86,NNW,342,2.0,10.0,95,0.00,,,0.37,WUHU216DAVISVP2,2013-04-10 19:39:00,
2013-04-10 15:44:00,43.7,42.1,29.87,NE,43,3.0,7.0,94,0.00,,,0.37,WUHU216DAVISVP2,2013-04-10 19:44:00,
2013-04-10 15:49:00,43.8,42.2,29.86,NNE,20,4.0,7.0,94,0.00,,,0.37,WUHU216DAVISVP2,2013-04-10 19:49:00,
2013-04-10 15:54:00,43.8,42.1,29.86,NNE,13,3.0,9.0,94,0.01,,,0.38,WUHU216DAVISVP2,2013-04-10 19:54:00,
2013-04-10 15:59:00,43.9,42.2,29.86,NW,311,5.0,9.0,94,0.01,,,0.38,WUHU216DAVISVP2,2013-04-10 19:59:00,
2013-04-10 16:04:00,43.9,42.2,29.85,NNW,342,3.0,10.0,94,0.01,,,0.38,WUHU216DAVISVP2,2013-04-10 20:04:00,
2013-04-10 16:09:00,43.9,42.2,29.85,NNE,20,6.0,10.0,94,0.01,,,0.38,WUHU216DAVISVP2,2013-04-10 20:09:00,
2013-04-10 16:14:00,43.6,41.7,29.85,NNE,15,9.0,12.0,93,0.01,,,0.38,WUHU216DAVISVP2,2013-04-10 20:14:00,
2013-04-10 16:19:00,43.3,41.4,29.87,NE,56,4.0,12.0,93,0.01,,,0.38,WUHU216DAVISVP2,2013-04-10 20:19:00,
2013-04-10 16:24:00,43.0,41.1,29.87,NW,315,5.0,14.0,93,0.01,,,0.38,WUHU216DAVISVP2,2013-04-10 20:24:00,
2013-04-10 16:29:00,42.5,40.6,29.87,NNE,18,7.0,14.0,93,0.01,,,0.38,WUHU216DAVISVP2,2013-04-10 20:29:00,
2013-04-10 16:34:00,42.4,40.8,29.88,North,6,7.0,13.0,94,0.01,,,0.38,WUHU216DAVISVP2,2013-04-10 20:34:00,
2013-04-10 16:39:00,42.1,40.2,29.88,NNW,340,4.0,13.0,93,0.01,,,0.38,WUHU216DAVISVP2,2013-04-10 20:39:00,
2013-04-10 16:44:00,41.9,40.0,29.88,North,349,9.0,11.0,93,0.01,,,0.38,WUHU216DAVISVP2,2013-04-10 20:44:00,
2013-04-10 16:49:00,41.7,40.1,29.89,NE,38,3.0,11.0,94,0.01,,,0.38,WUHU216DAVISVP2,2013-04-10 20:49:00,
2013-04-10 16:54:00,41.6,39.7,29.89,NNE,15,5.0,11.0,93,0.00,,,0.38,WUHU216DAVISVP2,2013-04-10 20:54:00,
2013-04-10 16:59:00,41.5,39.6,29.90,NNW,345,4.0,11.0,93,0.00,,,0.38,WUHU216DAVISVP2,2013-04-10 20:59:00,
2013-04-10 17:05:00,41.5,39.9,29.90,NNE,20,7.0,9.0,94,0.00,,,0.38,WUHU216DAVISVP2,2013-04-10 21:05:00,
2013-04-10 17:10:00,41.4,39.8,29.90,NW,322,2.0,14.0,94,0.00,,,0.38,WUHU216DAVISVP2,2013-04-10 21:10:00,
2013-04-10 17:15:00,41.4,39.8,29.90,North,6,2.0,14.0,94,0.00,,,0.38,WUHU216DAVISVP2,2013-04-10 21:15:00,
2013-04-10 17:20:00,41.4,39.8,29.89,North,360,5.0,13.0,94,0.00,,,0.38,WUHU216DAVISVP2,2013-04-10 21:20:00,
2013-04-10 17:25:00,41.3,39.7,29.89,NNE,13,3.0,13.0,94,0.00,,,0.38,WUHU216DAVISVP2,2013-04-10 21:25:00,
2013-04-10 17:30:00,41.3,39.7,29.89,NNE,26,5.0,10.0,94,0.00,,,0.38,WUHU216DAVISVP2,2013-04-10 21:30:00,
2013-04-10 17:35:00,41.3,39.9,29.89,NE,38,2.0,9.0,95,0.00,,,0.38,WUHU216DAVISVP2,2013-04-10 21:35:00,
2013-04-10 17:40:00,41.2,39.8,29.89,NE,45,4.0,9.0,95,0.00,,,0.38,WUHU216DAVISVP2,2013-04-10 21:40:00,
2013-04-10 17:45:00,41.0,39.6,29.90,NNE,31,2.0,8.0,95,0.00,,,0.38,WUHU216DAVISVP2,2013-04-10 21:45:00,
2013-04-10 17:50:00,40.8,39.2,29.90,ENE,58,9.0,11.0,94,0.00,,,0.38,WUHU216DAVISVP2,2013-04-10 21:50:00,
2013-04-10 17:55:00,40.7,39.3,29.89,NNE,31,9.0,11.0,95,0.00,,,0.38,WUHU216DAVISVP2,2013-04-10 21:55:00,
2013-04-10 18:00:00,40.7,39.3,29.89,NNE,15,3.0,11.0,95,0.00,,,0.38,WUHU216DAVISVP2,2013-04-10 22:00:00,
2013-04-10 18:05:00,40.7,39.4,29.89,NE,46,4.0,10.0,95,0.00,,,0.38,WUHU216DAVISVP2,2013-04-10 22:05:00,
2013-04-10 18:10:00,40.6,39.5,29.87,NNE,24,5.0,10.0,96,0.00,,,0.38,WUHU216DAVISVP2,2013-04-10 22:10:00,
2013-04-10 18:15:00,40.5,39.4,29.87,NNE,25,6.0,9.0,96,0.00,,,0.38,WUHU216DAVISVP2,2013-04-10 22:15:00,
2013-04-10 18:20:00,40.5,39.4,29.88,NNE,25,3.0,11.0,96,0.00,,,0.38,WUHU216DAVISVP2,2013-04-10 22:20:00,
2013-04-10 18:25:00,40.5,39.4,29.87,NE,49,8.0,11.0,96,0.00,,,0.38,WUHU216DAVISVP2,2013-04-10 22:25:00,
2013-04-10 18:30:00,40.4,39.3,29.86,North,353,4.0,10.0,96,0.00,,,0.38,WUHU216DAVISVP2,2013-04-10 22:30:00,
2013-04-10 18:35:00,40.3,38.9,29.86,NE,37,6.0,14.0,95,0.00,,,0.38,WUHU216DAVISVP2,2013-04-10 22:35:00,
2013-04-10 18:40:00,40.1,38.7,29.87,NE,37,6.0,14.0,95,0.00,,,0.38,WUHU216DAVISVP2,2013-04-10 22:40:00,
2013-04-10 18:45:00,40.0,38.6,29.88,NE,37,2.0,13.0,95,0.00,,,0.38,WUHU216DAVISVP2,2013-04-10 22:45:00,
2013-04-10 18:50:00,39.9,38.5,29.88,NE,55,5.0,13.0,95,0.00,,,0.38,WUHU216DAVISVP2,2013-04-10 22:50:00,
2013-04-10 18:55:00,39.8,38.5,29.86,NNE,19,2.0,11.0,95,0.00,,,0.38,WUHU216DAVISVP2,2013-04-10 22:55:00,
2013-04-10 19:00:00,39.7,38.4,29.88,ENE,67,4.0,10.0,95,0.00,,,0.38,WUHU216DAVISVP2,2013-04-10 23:00:00,
2013-04-10 19:05:00,39.6,38.3,29.88,NNE,26,2.0,10.0,95,0.00,,,0.38,WUHU216DAVISVP2,2013-04-10 23:05:00,
2013-04-10 19:10:00,39.7,38.3,29.89,NE,52,4.0,9.0,95,0.00,,,0.38,WUHU216DAVISVP2,2013-04-10 23:10:00,
2013-04-10 19:15:00,39.7,38.3,29.88,NE,34,4.0,9.0,95,0.00,,,0.38,WUHU216DAVISVP2,2013-04-10 23:15:00,
2013-04-10 19:20:00,39.7,38.3,29.88,NE,51,4.0,7.0,95,0.00,,,0.38,WUHU216DAVISVP2,2013-04-10 23:20:00,
2013-04-10 19:25:00,39.7,38.1,29.89,ENE,74,2.0,10.0,94,0.00,,,0.38,WUHU216DAVISVP2,2013-04-10 23:25:00,
2013-04-10 19:30:00,39.7,38.1,29.90,NE,36,2.0,10.0,94,0.00,,,0.38,WUHU216DAVISVP2,2013-04-10 23:30:00,
2013-04-10 19:35:00,39.7,38.1,29.90,East,80,8.0,9.0,94,0.00,,,0.38,WUHU216DAVISVP2,2013-04-10 23:35:00,
2013-04-10 19:40:00,39.7,38.1,29.91,NE,41,4.0,10.0,94,0.00,,,0.38,WUHU216DAVISVP2,2013-04-10 23:40:00,
2013-04-10 19:45:00,39.7,38.1,29.91,NE,53,4.0,10.0,94,0.00,,,0.38,WUHU216DAVISVP2,2013-04-10 23:45:00,
2013-04-10 19:50:00,39.7,38.1,29.91,NE,52,3.0,9.0,94,0.00,,,0.38,WUHU216DAVISVP2,2013-04-10 23:50:00,
2013-04-10 19:55:00,39.7,38.1,29.91,ENE,60,2.0,8.0,94,0.00,,,0.38,WUHU216DAVISVP2,2013-04-10 23:55:00,
2013-04-10 20:00:00,39.7,38.1,29.90,ENE,60,3.0,8.0,94,0.00,,,0.38,WUHU216DAVISVP2,2013-04-11 00:00:00,
2013-04-10 20:05:00,39.7,38.1,29.90,NE,46,5.0,8.0,94,0.00,,,0.38,WUHU216DAVISVP2,2013-04-11 00:05:00,
2013-04-10 20:10:00,39.7,38.1,29.89,NE,41,3.0,8.0,94,0.00,,,0.38,WUHU216DAVISVP2,2013-04-11 00:10:00,
2013-04-10 20:15:00,39.6,38.0,29.89,ENE,67,4.0,10.0,94,0.00,,,0.38,WUHU216DAVISVP2,2013-04-11 00:15:00,
2013-04-10 20:20:00,39.6,38.0,29.89,NE,45,5.0,10.0,94,0.00,,,0.38,WUHU216DAVISVP2,2013-04-11 00:20:00,
2013-04-10 20:25:00,39.4,37.8,29.89,ENE,63,4.0,9.0,94,0.00,,,0.38,WUHU216DAVISVP2,2013-04-11 00:25:00,
2013-04-10 20:30:00,39.3,37.7,29.89,ENE,58,4.0,9.0,94,0.00,,,0.38,WUHU216DAVISVP2,2013-04-11 00:30:00,
2013-04-10 20:35:00,39.2,37.6,29.90,NNE,29,3.0,9.0,94,0.00,,,0.38,WUHU216DAVISVP2,2013-04-11 00:35:00,
2013-04-10 20:40:00,39.1,37.5,29.91,NE,37,4.0,9.0,94,0.00,,,0.38,WUHU216DAVISVP2,2013-04-11 00:40:00,
2013-04-10 20:45:00,39.1,37.7,29.91,NE,51,3.0,8.0,95,0.00,,,0.38,WUHU216DAVISVP2,2013-04-11 00:45:00,
2013-04-10 20:50:00,39.1,37.7,29.92,ENE,57,3.0,7.0,95,0.00,,,0.38,WUHU216DAVISVP2,2013-04-11 00:50:00,
2013-04-10 20:55:00,39.1,37.7,29.92,East,93,2.0,7.0,95,0.00,,,0.38,WUHU216DAVISVP2,2013-04-11 00:55:00,
2013-04-10 21:00:00,39.0,37.6,29.91,NE,47,4.0,7.0,95,0.00,,,0.38,WUHU216DAVISVP2,2013-04-11 01:00:00,
2013-04-10 21:05:00,38.9,37.5,29.91,NE,53,2.0,7.0,95,0.00,,,0.38,WUHU216DAVISVP2,2013-04-11 01:05:00,
2013-04-10 21:10:00,39.0,37.7,29.91,NNW,341,4.0,7.0,95,0.00,,,0.38,WUHU216DAVISVP2,2013-04-11 01:10:00,
2013-04-10 21:15:00,38.8,37.4,29.91,NNE,15,3.0,7.0,95,0.00,,,0.38,WUHU216DAVISVP2,2013-04-11 01:15:00,
2013-04-10 21:20:00,38.7,37.3,29.92,North,360,3.0,6.0,95,0.00,,,0.38,WUHU216DAVISVP2,2013-04-11 01:20:00,
2013-04-10 21:25:00,38.7,37.3,29.91,ENE,57,2.0,6.0,95,0.00,,,0.38,WUHU216DAVISVP2,2013-04-11 01:25:00,
2013-04-10 21:30:00,38.6,37.2,29.91,NE,41,1.0,6.0,95,0.00,,,0.38,WUHU216DAVISVP2,2013-04-11 01:30:00,
2013-04-10 21:35:00,38.5,37.1,29.92,NE,46,3.0,6.0,95,0.00,,,0.38,WUHU216DAVISVP2,2013-04-11 01:35:00,
2013-04-10 21:40:00,38.3,37.2,29.91,NE,56,5.0,7.0,96,0.00,,,0.38,WUHU216DAVISVP2,2013-04-11 01:40:00,
2013-04-10 21:45:00,38.2,37.1,29.89,NE,56,3.0,8.0,96,0.00,,,0.38,WUHU216DAVISVP2,2013-04-11 01:45:00,
2013-04-10 21:50:00,38.1,37.0,29.89,ENE,71,4.0,9.0,96,0.00,,,0.38,WUHU216DAVISVP2,2013-04-11 01:50:00,
2013-04-10 21:55:00,38.0,36.9,29.89,ENE,60,4.0,10.0,96,0.00,,,0.38,WUHU216DAVISVP2,2013-04-11 01:55:00,
2013-04-10 22:00:00,38.0,36.9,29.89,SE,124,3.0,10.0,96,0.00,,,0.38,WUHU216DAVISVP2,2013-04-11 02:00:00,
2013-04-10 22:05:00,38.0,36.9,29.88,NE,56,7.0,9.0,96,0.00,,,0.38,WUHU216DAVISVP2,2013-04-11 02:05:00,
2013-04-10 22:10:00,38.1,37.0,29.89,ENE,58,2.0,10.0,96,0.00,,,0.38,WUHU216DAVISVP2,2013-04-11 02:10:00,
2013-04-10 22:15:00,38.1,37.0,29.89,NE,41,3.0,10.0,96,0.00,,,0.38,WUHU216DAVISVP2,2013-04-11 02:15:00,
2013-04-10 22:20:00,38.2,37.1,29.90,NE,50,3.0,10.0,96,0.00,,,0.38,WUHU216DAVISVP2,2013-04-11 02:20:00,
2013-04-10 22:25:00,38.2,37.1,29.90,North,359,1.0,10.0,96,0.00,,,0.38,WUHU216DAVISVP2,2013-04-11 02:25:00,
2013-04-10 22:30:00,38.3,37.2,29.90,East,88,5.0,9.0,96,0.00,,,0.38,WUHU216DAVISVP2,2013-04-11 02:30:00,
2013-04-10 22:35:00,38.3,37.2,29.90,NE,49,9.0,9.0,96,0.00,,,0.38,WUHU216DAVISVP2,2013-04-11 02:35:00,
2013-04-10 22:40:00,38.3,37.2,29.90,ENE,63,4.0,10.0,96,0.00,,,0.38,WUHU216DAVISVP2,2013-04-11 02:40:00,
2013-04-10 22:45:00,38.3,37.2,29.90,NNE,23,4.0,10.0,96,0.00,,,0.38,WUHU216DAVISVP2,2013-04-11 02:45:00,
2013-04-10 22:50:00,38.3,37.2,29.91,NE,40,4.0,9.0,96,0.00,,,0.38,WUHU216DAVISVP2,2013-04-11 02:50:00,
2013-04-10 22:55:00,38.3,37.2,29.91,ENE,60,4.0,9.0,96,0.00,,,0.38,WUHU216DAVISVP2,2013-04-11 02:55:00,
2013-04-10 23:00:00,38.2,37.1,29.92,ENE,58,2.0,9.0,96,0.00,,,0.38,WUHU216DAVISVP2,2013-04-11 03:00:00,
2013-04-10 23:05:00,38.2,37.1,29.92,NE,37,2.0,9.0,96,0.00,,,0.38,WUHU216DAVISVP2,2013-04-11 03:05:00,
2013-04-10 23:10:00,38.2,37.1,29.92,NE,44,2.0,8.0,96,0.00,,,0.38,WUHU216DAVISVP2,2013-04-11 03:10:00,
2013-04-10 23:15:00,38.1,37.0,29.93,NE,48,2.0,8.0,96,0.00,,,0.38,WUHU216DAVISVP2,2013-04-11 03:15:00,
2013-04-10 23:20:00,38.0,36.9,29.92,NE,38,5.0,10.0,96,0.00,,,0.38,WUHU216DAVISVP2,2013-04-11 03:20:00,
2013-04-10 23:25:00,37.9,36.8,29.92,NE,55,4.0,10.0,96,0.00,,,0.38,WUHU216DAVISVP2,2013-04-11 03:25:00,
2013-04-10 23:30:00,37.9,36.8,29.91,NE,43,4.0,9.0,96,0.00,,,0.38,WUHU216DAVISVP2,2013-04-11 03:30:00,
2013-04-10 23:35:00,37.8,36.7,29.92,NE,42,4.0,9.0,96,0.00,,,0.38,WUHU216DAVISVP2,2013-04-11 03:35:00,
2013-04-10 23:40:00,37.8,36.7,29.92,NE,43,2.0,8.0,96,0.00,,,0.38,WUHU216DAVISVP2,2013-04-11 03:40:00,
2013-04-10 23:45:00,37.7,36.6,29.92,ENE,60,3.0,8.0,96,0.00,,,0.38,WUHU216DAVISVP2,2013-04-11 03:45:00,
2013-04-10 23:50:00,37.6,36.5,29.91,NE,39,3.0,7.0,96,0.00,,,0.38,WUHU216DAVISVP2,2013-04-11 03:50:00,
2013-04-10 23:55:00,37.5,36.4,29.91,NE,34,4.0,7.0,96,0.00,,,0.38,WUHU216DAVISVP2,2013-04-11 03:55:00,